Time;durP1;ratioP1;P1;durP2;ratioP2;P2;SDS_P1;SDS_P2;PMS_P1;PMS_P2;Temp;Humidity;BMP_temperature;BMP_pressure;BME280_temperature;BME280_humidity;BME280_pressure;Samples;Min_cycle;Max_cycle;Signal;HPM_P1;HPM_P2
2023/05/06 00:01:01;;;;;;;;;;;;;;;17.67;nan;102013.13;5040830;28;20385;-84
2023/05/06 00:03:27;;;;;;;;;;;;;;;17.62;nan;102007.69;5041966;28;19917;-84
2023/05/06 00:05:53;;;;;;;;;;;;;;;17.65;nan;102018.00;5045135;28;19917;-85
2023/05/06 00:08:18;;;;;;;;;;;;;;;17.69;nan;102013.72;5042361;28;19965;-85
2023/05/06 00:10:44;;;;;;;;;;;;;;;17.68;nan;102016.69;5046842;28;19963;-85
2023/05/06 00:13:09;;;;;;;;;;;;;;;17.61;nan;102016.91;5045435;28;20362;-84
2023/05/06 00:15:35;;;;;;;;;;;;;;;17.59;nan;102013.63;5044883;28;19948;-85
2023/05/06 00:18:01;;;;;;;;;;;;;;;17.61;nan;102014.19;5046272;28;19921;-84
2023/05/06 00:20:27;;;;;;;;;;;;;;;17.60;nan;102009.06;5039672;28;20360;-85
2023/05/06 00:22:52;;;;;;;;;;;;;;;17.59;nan;102016.34;5035606;28;20011;-84
2023/05/06 00:25:18;;;;;;;;;;;;;;;17.61;nan;102011.50;5042857;28;20003;-85
2023/05/06 00:27:43;;;;;;;;;;;;;;;17.56;nan;102014.16;5048510;28;19955;-84
2023/05/06 00:30:09;;;;;;;;;;;;;;;17.47;nan;102016.56;5037169;28;19917;-86
2023/05/06 00:32:35;;;;;;;;;;;;;;;17.45;nan;102007.09;5037291;28;19921;-84
2023/05/06 00:35:00;;;;;;;;;;;;;;;17.43;nan;102009.25;5040250;28;19920;-84
2023/05/06 00:37:25;;;;;;;;;;;;;;;17.38;nan;102006.47;5039723;28;19917;-84
2023/05/06 00:39:51;;;;;;;;;;;;;;;17.33;nan;102004.56;5042533;28;20282;-85
2023/05/06 00:42:16;;;;;;;;;;;;;;;17.36;nan;101998.63;5041333;28;19916;-84
2023/05/06 00:44:41;;;;;;;;;;;;;;;17.41;nan;102000.53;5039873;28;20370;-85
2023/05/06 00:47:07;;;;;;;;;;;;;;;17.37;nan;102002.13;5043874;28;19921;-84
2023/05/06 00:49:32;;;;;;;;;;;;;;;17.33;nan;101988.31;5040605;28;21284;-84
2023/05/06 00:51:59;;;;;;;;;;;;;;;17.37;nan;101996.72;5032610;28;19917;-84
2023/05/06 00:54:25;;;;;;;;;;;;;;;17.33;nan;102001.03;5038486;28;19924;-85
2023/05/06 00:56:51;;;;;;;;;;;;;;;17.27;nan;102000.22;5043617;28;19916;-85
2023/05/06 00:59:16;;;;;;;;;;;;;;;17.22;nan;101992.84;5041452;28;19917;-84
2023/05/06 01:01:42;;;;;;;;;;;;;;;17.21;nan;101996.63;5040753;28;19943;-85
2023/05/06 01:04:07;;;;;;;;;;;;;;;17.17;nan;101992.81;5040791;28;19963;-85
2023/05/06 01:07:05;;;;;;;;;;;;;;;17.13;nan;101985.50;5037647;28;20062;-85
2023/05/06 01:09:30;;;;;;;;;;;;;;;17.07;nan;101976.53;5002364;28;20414;-85
2023/05/06 01:12:03;;;;;;;;;;;;;;;17.05;nan;101980.56;5041675;28;19921;-85
2023/05/06 01:14:28;;;;;;;;;;;;;;;17.04;nan;101979.75;5037815;28;20000;-85
2023/05/06 01:16:56;;;;;;;;;;;;;;;17.00;nan;101985.94;5044489;28;20344;-84
2023/05/06 01:19:40;;;;;;;;;;;;;;;16.94;nan;101990.53;5042354;28;19948;-85
2023/05/06 01:22:06;;;;;;;;;;;;;;;16.92;nan;101987.25;5040505;28;19952;-85
2023/05/06 01:24:35;;;;;;;;;;;;;;;16.92;nan;101973.72;5039119;28;19967;-84
2023/05/06 01:27:01;;;;;;;;;;;;;;;16.92;nan;101981.84;5045921;28;20433;-85
2023/05/06 01:29:26;;;;;;;;;;;;;;;16.87;nan;101977.19;5041666;28;20011;-85
2023/05/06 01:31:56;;;;;;;;;;;;;;;16.83;nan;101972.56;5042345;28;19972;-85
2023/05/06 01:34:33;;;;;;;;;;;;;;;16.76;nan;101977.41;5048745;28;19938;-85
2023/05/06 01:36:58;;;;;;;;;;;;;;;16.68;nan;101983.28;5046991;28;19920;-85
2023/05/06 01:39:25;;;;;;;;;;;;;;;16.59;nan;101977.50;5047501;28;20421;-85
2023/05/06 01:41:51;;;;;;;;;;;;;;;16.55;nan;101973.69;5046727;28;20421;-84
2023/05/06 01:44:20;;;;;;;;;;;;;;;16.49;nan;101974.69;5044580;28;19921;-84
2023/05/06 01:46:47;;;;;;;;;;;;;;;16.40;nan;101968.16;5036040;28;19967;-86
2023/05/06 01:49:13;;;;;;;;;;;;;;;16.34;nan;101972.69;5040468;28;19925;-85
2023/05/06 01:51:39;;;;;;;;;;;;;;;16.29;nan;101983.44;5041213;28;20302;-85
2023/05/06 01:54:04;;;;;;;;;;;;;;;16.27;nan;101983.72;5044234;28;19916;-85
2023/05/06 01:56:29;;;;;;;;;;;;;;;16.28;nan;101989.94;5042527;28;19962;-86
2023/05/06 01:58:56;;;;;;;;;;;;;;;16.27;nan;101983.72;5037931;28;20187;-85
2023/05/06 02:01:22;;;;;;;;;;;;;;;16.26;nan;101981.25;5037752;28;20019;-85
2023/05/06 02:03:47;;;;;;;;;;;;;;;16.24;nan;101975.28;5042219;28;20003;-85
2023/05/06 02:06:12;;;;;;;;;;;;;;;16.23;nan;101962.84;5042801;28;20309;-85
2023/05/06 02:08:39;;;;;;;;;;;;;;;16.21;nan;101959.59;5039075;28;19956;-87
2023/05/06 02:11:05;;;;;;;;;;;;;;;16.14;nan;101969.78;5037934;28;19917;-86
2023/05/06 02:13:30;;;;;;;;;;;;;;;16.04;nan;101964.28;5039139;28;20295;-85
2023/05/06 02:15:55;;;;;;;;;;;;;;;15.91;nan;101966.31;5041998;28;20332;-86
2023/05/06 02:18:21;;;;;;;;;;;;;;;15.88;nan;101971.41;5039906;28;20508;-84
2023/05/06 02:20:46;;;;;;;;;;;;;;;15.84;nan;101963.00;5042431;28;19924;-85
2023/05/06 02:23:12;;;;;;;;;;;;;;;15.83;nan;101964.06;5023758;28;19925;-85
2023/05/06 02:25:37;;;;;;;;;;;;;;;15.84;nan;101959.47;5041944;28;19924;-84
2023/05/06 02:28:02;;;;;;;;;;;;;;;15.84;nan;101964.88;5041572;28;19920;-85
2023/05/06 02:30:29;;;;;;;;;;;;;;;15.87;nan;101959.78;5037776;28;19916;-85
2023/05/06 02:32:56;;;;;;;;;;;;;;;15.88;nan;101949.78;5037135;28;19929;-87
2023/05/06 02:35:21;;;;;;;;;;;;;;;15.89;nan;101946.81;5040294;28;20099;-85
2023/05/06 02:37:47;;;;;;;;;;;;;;;15.90;nan;101939.53;5035613;28;20047;-85
2023/05/06 02:40:12;;;;;;;;;;;;;;;15.91;nan;101944.69;5039697;28;20088;-85
2023/05/06 02:42:37;;;;;;;;;;;;;;;15.84;nan;101935.97;5040597;28;19963;-85
2023/05/06 02:45:03;;;;;;;;;;;;;;;15.76;nan;101935.59;5040032;28;19923;-85
2023/05/06 02:47:28;;;;;;;;;;;;;;;15.71;nan;101930.97;5046504;28;19945;-86
2023/05/06 02:49:53;;;;;;;;;;;;;;;15.70;nan;101929.31;5044754;28;19962;-85
2023/05/06 02:52:19;;;;;;;;;;;;;;;15.70;nan;101932.03;5042541;28;19925;-86
2023/05/06 02:54:44;;;;;;;;;;;;;;;15.69;nan;101919.59;5045597;28;19928;-85
2023/05/06 02:57:10;;;;;;;;;;;;;;;15.69;nan;101925.00;5045610;28;19999;-85
2023/05/06 02:59:35;;;;;;;;;;;;;;;15.66;nan;101922.81;5041309;28;19943;-84
2023/05/06 03:02:01;;;;;;;;;;;;;;;15.57;nan;101916.19;5038661;28;19920;-86
2023/05/06 03:04:26;;;;;;;;;;;;;;;15.55;nan;101919.13;5043511;28;19924;-85
2023/05/06 03:06:51;;;;;;;;;;;;;;;15.49;nan;101916.63;5040952;28;19964;-88
2023/05/06 03:09:17;;;;;;;;;;;;;;;15.43;nan;101921.13;5039245;28;19928;-84
2023/05/06 03:11:42;;;;;;;;;;;;;;;15.42;nan;101925.72;5044712;28;19928;-84
2023/05/06 03:14:08;;;;;;;;;;;;;;;15.44;nan;101914.69;5038965;28;19924;-85
2023/05/06 03:16:33;;;;;;;;;;;;;;;15.46;nan;101914.44;5046658;28;20014;-86
2023/05/06 03:18:59;;;;;;;;;;;;;;;15.48;nan;101917.69;5025244;28;19968;-85
2023/05/06 03:21:24;;;;;;;;;;;;;;;15.52;nan;101916.94;5042792;28;20342;-86
2023/05/06 03:23:50;;;;;;;;;;;;;;;15.48;nan;101921.22;5042532;28;20337;-84
2023/05/06 03:26:15;;;;;;;;;;;;;;;15.52;nan;101918.81;5043309;28;20046;-86
2023/05/06 03:28:42;;;;;;;;;;;;;;;15.48;nan;101915.81;5040132;28;19917;-85
2023/05/06 03:31:07;;;;;;;;;;;;;;;15.47;nan;101910.66;5035526;28;19917;-87
2023/05/06 03:33:32;;;;;;;;;;;;;;;15.45;nan;101902.81;5043759;28;19929;-85
2023/05/06 03:35:58;;;;;;;;;;;;;;;15.39;nan;101907.31;5044993;28;19917;-84
2023/05/06 03:38:23;;;;;;;;;;;;;;;15.35;nan;101906.19;5041202;28;19925;-84
2023/05/06 03:40:49;;;;;;;;;;;;;;;15.35;nan;101903.50;5042549;28;19917;-84
2023/05/06 03:43:14;;;;;;;;;;;;;;;15.32;nan;101898.63;5040207;28;19925;-86
2023/05/06 03:45:40;;;;;;;;;;;;;;;15.31;nan;101890.75;5037453;28;19920;-84
2023/05/06 03:48:05;;;;;;;;;;;;;;;15.25;nan;101891.75;5038679;28;19917;-85
2023/05/06 03:50:30;;;;;;;;;;;;;;;15.24;nan;101890.94;5038966;28;19916;-84
2023/05/06 03:52:56;;;;;;;;;;;;;;;15.23;nan;101889.31;5040275;28;19921;-87
2023/05/06 03:55:21;;;;;;;;;;;;;;;15.23;nan;101894.69;5039273;28;19925;-84
2023/05/06 03:57:46;;;;;;;;;;;;;;;15.25;nan;101886.34;5045616;28;19924;-85
2023/05/06 04:00:12;;;;;;;;;;;;;;;15.18;nan;101891.13;5022726;28;19920;-84
2023/05/06 04:02:37;;;;;;;;;;;;;;;15.13;nan;101894.59;5027322;28;19921;-85
2023/05/06 04:05:03;;;;;;;;;;;;;;;15.10;nan;101892.41;5039909;28;19924;-84
2023/05/06 04:07:29;;;;;;;;;;;;;;;15.06;nan;101888.53;5039059;28;19921;-85
2023/05/06 04:09:54;;;;;;;;;;;;;;;15.02;nan;101882.03;5039972;28;20048;-85
2023/05/06 04:12:20;;;;;;;;;;;;;;;14.99;nan;101883.34;5037101;28;20214;-84
2023/05/06 04:14:45;;;;;;;;;;;;;;;15.00;nan;101884.16;5035233;28;20007;-85
2023/05/06 04:17:10;;;;;;;;;;;;;;;15.02;nan;101887.41;5038449;28;19917;-85
2023/05/06 04:19:36;;;;;;;;;;;;;;;14.98;nan;101881.72;5036055;28;19921;-86
2023/05/06 04:22:02;;;;;;;;;;;;;;;14.98;nan;101886.28;5040887;28;19928;-87
2023/05/06 04:24:28;;;;;;;;;;;;;;;14.94;nan;101879.75;5037077;28;20311;-85
2023/05/06 04:26:54;;;;;;;;;;;;;;;14.92;nan;101881.91;5039448;28;20390;-84
2023/05/06 04:29:19;;;;;;;;;;;;;;;14.90;nan;101879.47;5037086;28;19971;-84
2023/05/06 04:31:46;;;;;;;;;;;;;;;14.88;nan;101878.84;5036583;28;19960;-84
2023/05/06 04:34:11;;;;;;;;;;;;;;;14.92;nan;101882.72;5038800;28;19986;-84
2023/05/06 04:36:36;;;;;;;;;;;;;;;14.96;nan;101877.63;5037096;28;19920;-86
2023/05/06 04:39:02;;;;;;;;;;;;;;;15.01;nan;101877.69;5033661;28;19924;-84
2023/05/06 04:41:30;;;;;;;;;;;;;;;15.03;nan;101884.47;5035501;28;20547;-84
2023/05/06 04:43:55;;;;;;;;;;;;;;;15.08;nan;101886.41;5038754;28;20396;-84
2023/05/06 04:46:22;;;;;;;;;;;;;;;15.11;nan;101885.94;5038432;28;21371;-85
2023/05/06 04:48:47;;;;;;;;;;;;;;;15.12;nan;101887.56;5039425;28;19924;-84
2023/05/06 04:51:13;;;;;;;;;;;;;;;15.13;nan;101891.88;5036337;28;20290;-86
2023/05/06 04:53:39;;;;;;;;;;;;;;;15.18;nan;101891.13;5035087;28;19944;-84
2023/05/06 04:56:05;;;;;;;;;;;;;;;15.14;nan;101890.00;5032566;28;19988;-84
2023/05/06 04:58:30;;;;;;;;;;;;;;;15.16;nan;101887.88;5033072;28;19976;-84
2023/05/06 05:00:56;;;;;;;;;;;;;;;15.20;nan;101891.69;5037864;28;19917;-85
2023/05/06 05:03:21;;;;;;;;;;;;;;;15.24;nan;101890.94;5038353;28;20846;-85
2023/05/06 05:05:46;;;;;;;;;;;;;;;15.30;nan;101891.84;5038963;28;20386;-84
2023/05/06 05:08:12;;;;;;;;;;;;;;;15.31;nan;101891.59;5042564;28;20012;-85
2023/05/06 05:10:40;;;;;;;;;;;;;;;15.29;nan;101888.31;5036879;28;20230;-85
2023/05/06 05:13:05;;;;;;;;;;;;;;;15.27;nan;101890.47;5041280;28;20375;-86
2023/05/06 05:15:30;;;;;;;;;;;;;;;15.22;nan;101887.66;5040929;28;20139;-85
2023/05/06 05:17:56;;;;;;;;;;;;;;;15.24;nan;101892.81;5042986;28;20413;-86
2023/05/06 05:20:21;;;;;;;;;;;;;;;15.23;nan;101893.88;5039456;28;20420;-85
2023/05/06 05:22:46;;;;;;;;;;;;;;;15.23;nan;101894.69;5044483;28;19979;-86
2023/05/06 05:25:12;;;;;;;;;;;;;;;15.19;nan;101896.28;5039440;28;19920;-85
2023/05/06 05:27:37;;;;;;;;;;;;;;;15.19;nan;101896.28;5040286;28;20333;-84
2023/05/06 05:30:03;;;;;;;;;;;;;;;15.15;nan;101897.84;5040934;28;20286;-87
2023/05/06 05:32:28;;;;;;;;;;;;;;;15.13;nan;101897.28;5040501;28;20271;-85
2023/05/06 05:34:53;;;;;;;;;;;;;;;15.15;nan;101903.25;5037891;28;20018;-85
2023/05/06 05:37:18;;;;;;;;;;;;;;;15.16;nan;101899.47;5036589;28;20433;-85
2023/05/06 05:39:44;;;;;;;;;;;;;;;15.19;nan;101903.56;5040968;28;19921;-85
2023/05/06 05:42:09;;;;;;;;;;;;;;;15.22;nan;101903.88;5040110;28;20011;-85
2023/05/06 05:44:35;;;;;;;;;;;;;;;15.26;nan;101899.63;5042609;28;19917;-85
2023/05/06 05:47:01;;;;;;;;;;;;;;;15.28;nan;101902.06;5041112;28;19925;-85
2023/05/06 05:49:26;;;;;;;;;;;;;;;15.23;nan;101904.69;5037648;28;20333;-84
2023/05/06 05:51:51;;;;;;;;;;;;;;;15.20;nan;101911.41;5039864;28;20036;-85
2023/05/06 05:54:17;;;;;;;;;;;;;;;15.20;nan;101907.91;5036233;28;19923;-85
2023/05/06 05:56:42;;;;;;;;;;;;;;;15.24;nan;101907.13;5038813;28;19925;-85
2023/05/06 05:59:07;;;;;;;;;;;;;;;15.25;nan;101908.75;5032277;28;19928;-85
2023/05/06 06:01:33;;;;;;;;;;;;;;;15.25;nan;101908.75;5038180;28;20267;-85
2023/05/06 06:03:58;;;;;;;;;;;;;;;15.27;nan;101909.34;5020289;28;20325;-85
2023/05/06 06:06:25;;;;;;;;;;;;;;;15.29;nan;101909.91;5035712;28;20370;-85
2023/05/06 06:08:50;;;;;;;;;;;;;;;15.31;nan;101912.38;5040579;28;19939;-85
2023/05/06 06:11:15;;;;;;;;;;;;;;;15.32;nan;101909.41;5035260;28;20374;-85
2023/05/06 06:13:41;;;;;;;;;;;;;;;15.34;nan;101915.38;5038613;28;20556;-85
2023/05/06 06:16:06;;;;;;;;;;;;;;;15.34;nan;101920.78;5040445;28;19996;-85
2023/05/06 06:18:31;;;;;;;;;;;;;;;15.32;nan;101924.78;5035451;28;20066;-85
2023/05/06 06:20:57;;;;;;;;;;;;;;;15.33;nan;101934.53;5037044;28;20453;-86
2023/05/06 06:23:23;;;;;;;;;;;;;;;15.33;nan;101937.22;5038375;28;19927;-86
2023/05/06 06:25:48;;;;;;;;;;;;;;;15.33;nan;101934.53;5041047;28;19916;-85
2023/05/06 06:28:13;;;;;;;;;;;;;;;15.32;nan;101935.59;5040588;28;19928;-86
2023/05/06 06:30:39;;;;;;;;;;;;;;;15.31;nan;101933.97;5039399;28;20370;-84
2023/05/06 06:33:04;;;;;;;;;;;;;;;15.33;nan;101943.44;5044356;28;19948;-84
2023/05/06 06:35:30;;;;;;;;;;;;;;;15.37;nan;101943.75;5043283;28;20287;-84
2023/05/06 06:37:55;;;;;;;;;;;;;;;15.40;nan;101941.38;5037734;28;19944;-85
2023/05/06 06:40:21;;;;;;;;;;;;;;;15.40;nan;101938.66;5036869;28;20513;-84
2023/05/06 06:42:46;;;;;;;;;;;;;;;15.46;nan;101934.16;5037104;28;19925;-84
2023/05/06 06:45:12;;;;;;;;;;;;;;;15.49;nan;101932.84;5039417;28;20282;-84
2023/05/06 06:47:37;;;;;;;;;;;;;;;15.41;nan;101928.69;5038369;28;20007;-85
2023/05/06 06:50:03;;;;;;;;;;;;;;;15.39;nan;101928.94;5041172;28;19917;-85
2023/05/06 06:52:28;;;;;;;;;;;;;;;15.38;nan;101930.00;5035619;28;19921;-85
2023/05/06 06:54:53;;;;;;;;;;;;;;;15.32;nan;101931.00;5022378;28;19920;-84
2023/05/06 06:57:19;;;;;;;;;;;;;;;15.26;nan;101931.19;5036357;28;19916;-84
2023/05/06 06:59:46;;;;;;;;;;;;;;;15.25;nan;101933.06;5036350;28;20281;-84
2023/05/06 07:02:11;;;;;;;;;;;;;;;15.26;nan;101928.47;5035989;28;19916;-85
2023/05/06 07:04:37;;;;;;;;;;;;;;;15.27;nan;101936.34;5038450;28;19932;-84
2023/05/06 07:07:02;;;;;;;;;;;;;;;15.23;nan;101943.31;5036165;28;19925;-84
2023/05/06 07:09:27;;;;;;;;;;;;;;;15.22;nan;101941.66;5035083;28;20017;-85
2023/05/06 07:11:53;;;;;;;;;;;;;;;15.26;nan;101947.38;5034759;28;19917;-84
2023/05/06 07:14:19;;;;;;;;;;;;;;;15.29;nan;101958.53;5032934;28;19943;-85
2023/05/06 07:16:44;;;;;;;;;;;;;;;15.27;nan;101955.25;5035987;28;19920;-85
2023/05/06 07:19:09;;;;;;;;;;;;;;;15.24;nan;101963.84;5032815;28;19920;-84
2023/05/06 07:21:35;;;;;;;;;;;;;;;15.25;nan;101961.94;5035217;28;19931;-85
2023/05/06 07:24:00;;;;;;;;;;;;;;;15.25;nan;101967.34;5039295;28;20113;-85
2023/05/06 07:26:26;;;;;;;;;;;;;;;15.23;nan;101974.88;5037392;28;20433;-85
2023/05/06 07:28:52;;;;;;;;;;;;;;;15.27;nan;101976.84;5036923;28;20250;-85
2023/05/06 07:31:19;;;;;;;;;;;;;;;15.33;nan;101978.56;5038091;28;20191;-85
2023/05/06 07:33:47;;;;;;;;;;;;;;;15.38;nan;101975.09;5034342;28;21352;-86
2023/05/06 07:36:12;;;;;;;;;;;;;;;15.39;nan;101974.03;5037899;28;20217;-85
2023/05/06 07:38:38;;;;;;;;;;;;;;;15.43;nan;101965.16;5027885;28;20333;-84
2023/05/06 07:41:03;;;;;;;;;;;;;;;15.42;nan;101974.34;5038353;28;20321;-84
2023/05/06 07:43:28;;;;;;;;;;;;;;;15.41;nan;101970.00;5040522;28;20349;-85
2023/05/06 07:46:01;;;;;;;;;;;;;;;15.40;nan;101972.97;5022964;28;19917;-84
2023/05/06 07:48:26;;;;;;;;;;;;;;;15.34;nan;101982.88;5039165;28;19917;-84
2023/05/06 07:50:51;;;;;;;;;;;;;;;15.33;nan;101978.56;5037425;28;19925;-84
2023/05/06 07:53:17;;;;;;;;;;;;;;;15.37;nan;101982.38;5035178;28;19921;-84
2023/05/06 07:55:42;;;;;;;;;;;;;;;15.39;nan;101976.72;5034770;28;20034;-84
2023/05/06 07:58:07;;;;;;;;;;;;;;;15.37;nan;101982.38;5030437;28;19932;-86
2023/05/06 08:00:33;;;;;;;;;;;;;;;15.39;nan;101979.44;5033818;28;19924;-84
2023/05/06 08:02:58;;;;;;;;;;;;;;;15.37;nan;101982.38;5035581;28;19917;-84
2023/05/06 08:05:24;;;;;;;;;;;;;;;15.39;nan;101977.53;5044080;28;20004;-84
2023/05/06 08:07:50;;;;;;;;;;;;;;;15.49;nan;101978.75;5021158;28;19940;-84
2023/05/06 08:10:16;;;;;;;;;;;;;;;15.48;nan;101977.13;5036587;28;20373;-85
2023/05/06 08:12:41;;;;;;;;;;;;;;;15.46;nan;101982.78;5035385;28;19925;-84
2023/05/06 08:15:07;;;;;;;;;;;;;;;15.44;nan;101987.63;5039532;28;19925;-85
2023/05/06 08:17:32;;;;;;;;;;;;;;;15.45;nan;101988.44;5036121;28;19921;-85
2023/05/06 08:19:58;;;;;;;;;;;;;;;15.45;nan;101991.13;5035691;28;19917;-85
2023/05/06 08:22:23;;;;;;;;;;;;;;;15.48;nan;101999.53;5033395;28;19992;-86
2023/05/06 08:24:48;;;;;;;;;;;;;;;15.53;nan;101998.78;5034810;28;20298;-85
2023/05/06 08:27:13;;;;;;;;;;;;;;;15.54;nan;102005.81;5037688;28;20358;-84
2023/05/06 08:29:39;;;;;;;;;;;;;;;15.52;nan;102007.97;5049043;22;20366;-87
2023/05/06 08:32:05;;;;;;;;;;;;;;;15.53;nan;102009.59;5014427;28;19936;-85
2023/05/06 08:34:33;;;;;;;;;;;;;;;15.50;nan;102015.50;5016934;28;20055;-86
2023/05/06 08:36:59;;;;;;;;;;;;;;;15.45;nan;102010.03;5017147;28;20294;-85
2023/05/06 08:39:24;;;;;;;;;;;;;;;15.40;nan;102008.06;5020836;28;19936;-85
2023/05/06 08:41:51;;;;;;;;;;;;;;;15.34;nan;102018.00;5016559;28;19924;-85
2023/05/06 08:44:17;;;;;;;;;;;;;;;15.34;nan;102011.78;5014811;28;20394;-85
2023/05/06 08:46:43;;;;;;;;;;;;;;;15.36;nan;102010.44;5021802;28;19921;-85
2023/05/06 08:49:09;;;;;;;;;;;;;;;15.32;nan;102016.59;5016932;28;19966;-85
2023/05/06 08:51:36;;;;;;;;;;;;;;;15.28;nan;102016.28;5019704;28;20366;-85
2023/05/06 08:54:02;;;;;;;;;;;;;;;15.23;nan;102010.78;5015841;28;19929;-85
2023/05/06 08:56:29;;;;;;;;;;;;;;;15.19;nan;102006.97;5016622;28;19922;-85
2023/05/06 08:58:55;;;;;;;;;;;;;;;15.21;nan;102010.22;5017388;28;20452;-85
2023/05/06 09:01:20;;;;;;;;;;;;;;;15.23;nan;102008.09;5015456;28;20692;-86
2023/05/06 09:03:46;;;;;;;;;;;;;;;15.25;nan;102014.06;5021231;28;19924;-86
2023/05/06 09:06:12;;;;;;;;;;;;;;;15.29;nan;102011.72;5014586;28;19944;-85
2023/05/06 09:08:40;;;;;;;;;;;;;;;15.32;nan;102019.31;5016625;28;19917;-86
2023/05/06 09:11:17;;;;;;;;;;;;;;;15.36;nan;102021.25;5016217;28;20454;-85
2023/05/06 09:13:43;;;;;;;;;;;;;;;15.38;nan;102016.41;5016229;28;20016;-85
2023/05/06 09:16:08;;;;;;;;;;;;;;;15.36;nan;102025.84;5016304;28;20403;-86
2023/05/06 09:18:36;;;;;;;;;;;;;;;15.40;nan;102019.69;5015973;28;20212;-86
2023/05/06 09:21:02;;;;;;;;;;;;;;;15.47;nan;102021.41;5018944;28;20433;-86
2023/05/06 09:23:31;;;;;;;;;;;;;;;15.50;nan;102019.00;5016254;28;19931;-85
2023/05/06 09:25:56;;;;;;;;;;;;;;;15.56;nan;102011.78;5012990;28;19917;-85
2023/05/06 09:28:22;;;;;;;;;;;;;;;15.59;nan;102014.81;5016863;28;19932;-85
2023/05/06 09:30:47;;;;;;;;;;;;;;;15.58;nan;102020.47;5014575;28;19968;-86
2023/05/06 09:33:12;;;;;;;;;;;;;;;15.61;nan;102012.69;5018791;28;20060;-85
2023/05/06 09:35:39;;;;;;;;;;;;;;;15.62;nan;102022.47;5019102;28;19929;-86
2023/05/06 09:38:05;;;;;;;;;;;;;;;15.64;nan;102008.69;5020084;28;19956;-86
2023/05/06 09:40:30;;;;;;;;;;;;;;;15.61;nan;101999.19;5016965;28;19948;-86
2023/05/06 09:42:55;;;;;;;;;;;;;;;15.59;nan;102009.44;5014873;28;19917;-87
2023/05/06 09:45:21;;;;;;;;;;;;;;;15.59;nan;102005.91;5021329;28;19936;-86
2023/05/06 09:47:48;;;;;;;;;;;;;;;15.59;nan;102012.13;5016579;28;19921;-86
2023/05/06 09:50:14;;;;;;;;;;;;;;;15.56;nan;102019.88;5021703;28;20509;-85
2023/05/06 09:52:43;;;;;;;;;;;;;;;15.47;nan;102014.13;5017688;28;19928;-86
2023/05/06 09:55:09;;;;;;;;;;;;;;;15.43;nan;102024.59;5026426;28;21745;-85
2023/05/06 09:57:35;;;;;;;;;;;;;;;15.40;nan;102024.25;5011888;28;19921;-85
2023/05/06 10:00:01;;;;;;;;;;;;;;;15.38;nan;102021.00;5018454;28;19927;-85
2023/05/06 10:02:27;;;;;;;;;;;;;;;15.37;nan;102020.19;5010886;28;20863;-85
2023/05/06 10:04:56;;;;;;;;;;;;;;;15.37;nan;102025.59;5014987;28;19928;-87
2023/05/06 10:07:22;;;;;;;;;;;;;;;15.33;nan;102029.84;5013151;28;19971;-87
2023/05/06 10:09:48;;;;;;;;;;;;;;;15.30;nan;102019.56;5015363;28;20486;-85
2023/05/06 10:12:14;;;;;;;;;;;;;;;15.29;nan;102028.72;5014139;28;19921;-85
2023/05/06 10:14:39;;;;;;;;;;;;;;;15.31;nan;102029.28;5017862;28;20815;-86
2023/05/06 10:17:06;;;;;;;;;;;;;;;15.26;nan;102031.94;5017272;28;19921;-85
2023/05/06 10:19:32;;;;;;;;;;;;;;;15.26;nan;102026.53;5011362;28;19932;-86
2023/05/06 10:22:04;;;;;;;;;;;;;;;15.26;nan;102033.78;5016497;28;19975;-85
2023/05/06 10:24:33;;;;;;;;;;;;;;;15.30;nan;102034.94;5017798;28;19928;-85
2023/05/06 10:27:01;;;;;;;;;;;;;;;15.34;nan;102039.59;5015976;28;20286;-86
2023/05/06 10:29:27;;;;;;;;;;;;;;;15.27;nan;102036.25;5016830;28;19976;-86
2023/05/06 10:31:56;;;;;;;;;;;;;;;15.29;nan;102034.13;5016035;28;20306;-86
2023/05/06 10:34:21;;;;;;;;;;;;;;;15.30;nan;102043.03;5016201;28;19975;-86
2023/05/06 10:36:49;;;;;;;;;;;;;;;15.30;nan;102035.75;5017149;28;20576;-86
2023/05/06 10:39:15;;;;;;;;;;;;;;;15.36;nan;102034.75;5015160;28;19983;-86
2023/05/06 10:41:40;;;;;;;;;;;;;;;15.43;nan;102034.56;5017787;28;20691;-86
2023/05/06 10:44:08;;;;;;;;;;;;;;;15.41;nan;102044.81;5021706;28;19931;-86
2023/05/06 10:46:54;;;;;;;;;;;;;;;15.35;nan;102041.22;5025963;28;20017;-86
2023/05/06 10:49:19;;;;;;;;;;;;;;;15.29;nan;102038.72;5021290;28;19917;-86
2023/05/06 10:51:50;;;;;;;;;;;;;;;15.25;nan;102038.38;5020280;28;19917;-87
2023/05/06 10:54:18;;;;;;;;;;;;;;;15.23;nan;102032.41;5019779;28;19959;-86
2023/05/06 10:56:49;;;;;;;;;;;;;;;15.24;nan;102042.13;5021449;28;20048;-85
2023/05/06 10:59:23;;;;;;;;;;;;;;;15.27;nan;102041.66;5023186;28;19932;-85
2023/05/06 11:01:56;;;;;;;;;;;;;;;15.32;nan;102035.50;5015086;28;19987;-86
2023/05/06 11:04:54;;;;;;;;;;;;;;;;;;;;;
2023/05/06 11:18:23;;;;;;;;;;;;;;;15.63;nan;102043.00;5007652;22;19934;-91
2023/05/06 11:21:11;;;;;;;;;;;;;;;15.67;nan;102030.63;4995661;28;19914;-91
2023/05/06 11:23:45;;;;;;;;;;;;;;;15.71;nan;102037.16;4965344;28;20521;-91
2023/05/06 11:26:11;;;;;;;;;;;;;;;15.78;nan;102042.34;4985261;28;19918;-91
2023/05/06 11:28:37;;;;;;;;;;;;;;;15.79;nan;102040.47;4986370;28;19913;-91
2023/05/06 11:31:03;;;;;;;;;;;;;;;15.81;nan;102052.69;4990587;28;19917;-90
2023/05/06 11:33:32;;;;;;;;;;;;;;;15.84;nan;102052.19;4990015;28;19933;-90
2023/05/06 11:35:59;;;;;;;;;;;;;;;15.79;nan;102046.69;4991364;28;19921;-90
2023/05/06 11:38:25;;;;;;;;;;;;;;;15.77;nan;102056.94;4986904;28;20331;-91
2023/05/06 11:40:50;;;;;;;;;;;;;;;15.78;nan;102052.34;4988847;28;19917;-90
2023/05/06 11:43:16;;;;;;;;;;;;;;;15.79;nan;102059.38;4988393;28;19924;-90
2023/05/06 11:45:42;;;;;;;;;;;;;;;15.80;nan;102056.47;4989799;28;19918;-91
2023/05/06 11:48:10;;;;;;;;;;;;;;;15.79;nan;102062.91;4986788;28;19984;-90
2023/05/06 11:50:35;;;;;;;;;;;;;;;15.79;nan;102065.59;4990580;28;20008;-90
2023/05/06 11:53:01;;;;;;;;;;;;;;;15.81;nan;102063.50;4981838;28;19934;-89
2023/05/06 11:55:26;;;;;;;;;;;;;;;15.84;nan;102073.00;4983381;28;19920;-91
2023/05/06 11:57:52;;;;;;;;;;;;;;;15.82;nan;102069.72;4988021;28;20467;-89
2023/05/06 12:00:19;;;;;;;;;;;;;;;15.86;nan;102074.38;4990584;28;19933;-91
2023/05/06 12:02:44;;;;;;;;;;;;;;;15.87;nan;102076.00;4980979;28;19967;-92
2023/05/06 12:05:09;;;;;;;;;;;;;;;15.87;nan;102086.81;4987144;28;19922;-90
2023/05/06 12:07:35;;;;;;;;;;;;;;;15.89;nan;102092.78;4988331;28;19924;-90
2023/05/06 12:10:03;;;;;;;;;;;;;;;15.90;nan;102089.00;4986551;28;19953;-90
2023/05/06 12:12:31;;;;;;;;;;;;;;;15.97;nan;102094.22;4986882;28;19929;-90
2023/05/06 12:14:57;;;;;;;;;;;;;;;16.01;nan;102104.28;4989491;28;19921;-89
2023/05/06 12:17:22;;;;;;;;;;;;;;;16.04;nan;102100.28;4985185;28;19917;-90
2023/05/06 12:19:48;;;;;;;;;;;;;;;16.04;nan;102104.84;4984112;28;19918;-90
2023/05/06 12:22:17;;;;;;;;;;;;;;;15.99;nan;102098.31;4992859;28;20012;-90
2023/05/06 12:24:43;;;;;;;;;;;;;;;16.05;nan;102101.09;4988390;28;19925;-90
2023/05/06 12:27:08;;;;;;;;;;;;;;;16.10;nan;102104.66;4983720;28;20324;-90
2023/05/06 12:29:34;;;;;;;;;;;;;;;16.13;nan;102108.75;4984162;28;19929;-90
2023/05/06 12:32:07;;;;;;;;;;;;;;;16.14;nan;102107.66;4989667;28;20395;-91
2023/05/06 12:34:40;;;;;;;;;;;;;;;16.12;nan;102107.09;4989362;28;20067;-89
2023/05/06 12:37:06;;;;;;;;;;;;;;;16.06;nan;102103.53;4985305;28;19921;-91
2023/05/06 12:39:35;;;;;;;;;;;;;;;16.06;nan;102103.53;4989683;28;19926;-91
2023/05/06 12:42:01;;;;;;;;;;;;;;;16.12;nan;102109.81;4985880;28;19918;-89
2023/05/06 12:44:39;;;;;;;;;;;;;;;16.12;nan;102105.22;4986130;28;19922;-90
2023/05/06 12:47:08;;;;;;;;;;;;;;;16.10;nan;102115.47;4986128;28;19922;-90
2023/05/06 12:49:47;;;;;;;;;;;;;;;16.11;nan;102121.69;4987742;28;19922;-90
2023/05/06 12:52:13;;;;;;;;;;;;;;;16.13;nan;102114.97;4985122;28;19926;-90
2023/05/06 12:54:38;;;;;;;;;;;;;;;16.19;nan;102122.09;4989048;28;19918;-90
2023/05/06 12:57:04;;;;;;;;;;;;;;;16.20;nan;102122.91;4982090;28;19918;-90
2023/05/06 12:59:30;;;;;;;;;;;;;;;16.23;nan;102127.81;4983140;28;19917;-90
2023/05/06 13:01:56;;;;;;;;;;;;;;;16.27;nan;102137.84;4986660;28;20581;-90
2023/05/06 13:04:21;;;;;;;;;;;;;;;16.27;nan;102137.03;4981926;28;19918;-90